Time;durP1;ratioP1;P1;durP2;ratioP2;P2;SDS_P1;SDS_P2;PMS_P1;PMS_P2;Temp;Humidity;BMP_temperature;BMP_pressure;BME280_temperature;BME280_humidity;BME280_pressure;Samples;Min_cycle;Max_cycle;Signal;HPM_P1;HPM_P2
2022/07/18 00:01:42;;;;;;;2.75;2.40;;;;;;;23.51;37.38;96354.38;6123211;23;20198;-88
2022/07/18 00:04:15;;;;;;;3.20;2.75;;;;;;;23.48;37.54;96362.75;6121842;23;20203;-88
2022/07/18 00:06:46;;;;;;;4.25;2.63;;;;;;;23.41;38.27;96350.56;6124054;23;20569;-88
2022/07/18 00:09:15;;;;;;;5.63;3.05;;;;;;;23.43;37.96;96351.13;6123263;23;20200;-88
2022/07/18 00:11:45;;;;;;;2.40;2.30;;;;;;;23.43;38.06;96360.84;6122913;23;20176;-88
2022/07/18 00:14:16;;;;;;;2.80;2.60;;;;;;;23.43;38.14;96359.03;6122511;23;20203;-88
2022/07/18 00:16:44;;;;;;;3.15;2.53;;;;;;;23.32;38.39;96356.44;6123563;23;20163;-88
2022/07/18 00:19:17;;;;;;;2.47;2.28;;;;;;;23.29;38.25;96357.72;6122769;23;20195;-88
2022/07/18 00:21:57;;;;;;;5.40;2.90;;;;;;;23.24;38.97;96354.22;6124693;23;20203;-89
2022/07/18 00:24:26;;;;;;;3.00;2.60;;;;;;;23.24;38.87;96354.22;6123085;23;20199;-88
2022/07/18 00:27:00;;;;;;;2.67;2.45;;;;;;;23.12;39.23;96350.84;6123739;23;20183;-88
2022/07/18 00:29:35;;;;;;;2.50;2.30;;;;;;;22.95;39.97;96356.06;6123391;23;20203;-88
2022/07/18 00:32:08;;;;;;;2.47;2.38;;;;;;;22.85;41.13;96354.06;6122773;23;20160;-88
2022/07/18 00:34:40;;;;;;;2.92;2.63;;;;;;;22.77;40.72;96364.09;6122131;23;20278;-88
2022/07/18 00:37:07;;;;;;;2.60;2.40;;;;;;;22.77;41.13;96356.22;6123575;23;20242;-88
2022/07/18 00:39:39;;;;;;;3.72;2.70;;;;;;;22.71;41.04;96352.69;6123855;23;20540;-88
2022/07/18 00:42:08;;;;;;;2.88;2.47;;;;;;;22.61;41.39;96349.88;6122485;23;20242;-88
2022/07/18 00:44:40;;;;;;;2.60;2.40;;;;;;;22.65;41.18;96358.91;6122418;23;20720;-88
2022/07/18 00:47:13;;;;;;;2.40;2.20;;;;;;;22.56;41.94;96349.78;6123683;23;20188;-87
2022/07/18 00:49:50;;;;;;;2.95;2.40;;;;;;;22.55;41.77;96356.06;6123477;23;20581;-88
2022/07/18 00:52:23;;;;;;;2.70;2.50;;;;;;;22.35;42.50;96348.56;6109331;23;20680;-88
2022/07/18 00:54:49;;;;;;;3.33;2.40;;;;;;;22.21;42.85;96344.63;6145126;23;20549;-88
2022/07/18 00:57:16;;;;;;;2.60;2.30;;;;;;;22.18;42.81;96343.25;6126785;23;20175;-88
2022/07/18 01:02:28;;;;;;;3.20;2.58;;;;;;;22.23;42.62;96334.69;6124914;23;20186;-88
2022/07/18 01:04:55;;;;;;;2.63;2.42;;;;;;;22.15;42.89;96346.31;6126454;23;20179;-88
2022/07/18 01:07:22;;;;;;;2.75;2.55;;;;;;;22.06;43.23;96345.09;6126112;23;20180;-88
2022/07/18 01:09:48;;;;;;;2.58;2.38;;;;;;;22.04;43.32;96344.53;6125661;23;20549;-88
2022/07/18 01:12:15;;;;;;;3.22;2.55;;;;;;;22.03;43.51;96346.34;6124623;23;20171;-88
2022/07/18 01:14:42;;;;;;;3.08;2.40;;;;;;;22.01;43.71;96337.13;6125648;23;20180;-88
2022/07/18 01:17:16;;;;;;;4.35;2.85;;;;;;;22.05;43.21;96344.31;6126290;23;20433;-87
2022/07/18 01:19:45;;;;;;;3.13;2.70;;;;;;;22.04;43.57;96342.72;6125605;23;20195;-88
2022/07/18 01:22:13;;;;;;;2.40;2.10;;;;;;;21.96;43.60;96339.59;6124297;23;20202;-88
2022/07/18 01:24:40;;;;;;;3.08;2.50;;;;;;;21.92;43.65;96339.28;6124212;23;20176;-88
2022/07/18 01:27:07;;;;;;;2.70;2.50;;;;;;;21.91;43.54;96342.13;6124721;23;20642;-87
2022/07/18 01:29:34;;;;;;;2.55;2.35;;;;;;;21.90;43.87;96343.16;6125981;23;20250;-88
2022/07/18 01:32:04;;;;;;;2.95;2.65;;;;;;;21.90;44.23;96345.78;6123387;23;20228;-88
2022/07/18 01:34:31;;;;;;;3.60;2.45;;;;;;;21.79;44.58;96343.94;6122444;23;20211;-88
2022/07/18 01:36:58;;;;;;;2.65;2.45;;;;;;;21.73;44.60;96345.66;6123157;23;20179;-88
2022/07/18 01:39:25;;;;;;;3.53;2.88;;;;;;;21.73;44.43;96345.66;6123298;23;20195;-88
2022/07/18 01:41:56;;;;;;;3.00;2.70;;;;;;;21.68;44.68;96354.19;6126923;23;20183;-85
2022/07/18 01:44:22;;;;;;;3.85;2.80;;;;;;;21.61;44.55;96340.41;6147622;23;20217;-84
2022/07/18 01:46:49;;;;;;;2.90;2.58;;;;;;;21.60;45.29;96338.00;6127253;23;20175;-86
2022/07/18 01:49:15;;;;;;;2.83;2.60;;;;;;;21.51;45.42;96345.41;6123512;23;20199;-85
2022/07/18 01:51:46;;;;;;;4.05;2.40;;;;;;;21.34;45.61;96357.56;6122214;23;20179;-86
2022/07/18 01:54:12;;;;;;;2.70;2.50;;;;;;;21.28;45.37;96355.84;6123025;23;20263;-86
2022/07/18 01:56:40;;;;;;;2.70;2.50;;;;;;;21.26;45.91;96353.44;6122347;23;20201;-86
2022/07/18 01:59:06;;;;;;;3.33;2.70;;;;;;;21.25;45.75;96354.47;6122809;23;20184;-86
2022/07/18 02:01:33;;;;;;;3.00;2.70;;;;;;;21.27;45.50;96351.63;6121816;23;20207;-85
2022/07/18 02:03:59;;;;;;;4.63;2.78;;;;;;;21.22;46.02;96352.28;6121700;23;20211;-86
2022/07/18 02:06:28;;;;;;;3.20;2.63;;;;;;;21.26;45.63;96344.78;6122550;23;20175;-85
2022/07/18 02:08:54;;;;;;;3.17;2.97;;;;;;;21.25;45.60;96353.66;6122703;23;20552;-86
2022/07/18 02:11:22;;;;;;;3.88;2.65;;;;;;;21.14;46.30;96341.31;6121949;23;20172;-86
2022/07/18 02:13:50;;;;;;;4.22;2.90;;;;;;;21.12;46.19;96349.41;6121793;23;20233;-86
2022/07/18 02:16:17;;;;;;;2.90;2.70;;;;;;;21.12;46.26;96352.03;6122402;23;20179;-86
2022/07/18 02:18:44;;;;;;;3.90;2.75;;;;;;;21.13;46.00;96348.38;6122204;23;20210;-85
2022/07/18 02:21:11;;;;;;;2.70;2.50;;;;;;;21.16;45.55;96340.09;6121524;23;20669;-86
2022/07/18 02:23:39;;;;;;;2.92;2.60;;;;;;;20.98;46.21;96340.91;6121880;23;20203;-86
2022/07/18 02:26:06;;;;;;;3.22;2.92;;;;;;;20.87;46.91;96344.31;6122120;23;20171;-85
2022/07/18 02:28:34;;;;;;;3.20;2.90;;;;;;;20.78;47.17;96337.00;6122336;23;20191;-86
2022/07/18 02:31:04;;;;;;;3.17;2.88;;;;;;;20.70;47.22;96332.88;6121054;23;20196;-86
2022/07/18 02:33:31;;;;;;;2.85;2.58;;;;;;;20.63;46.98;96332.94;6121843;23;20525;-85
2022/07/18 02:35:57;;;;;;;3.80;2.88;;;;;;;20.58;46.97;96326.78;6122545;23;20179;-86
2022/07/18 02:38:24;;;;;;;3.05;2.78;;;;;;;20.63;47.26;96327.72;6122362;23;20179;-85
2022/07/18 02:40:51;;;;;;;3.22;2.65;;;;;;;20.67;46.97;96331.47;6121058;23;20685;-86
2022/07/18 02:43:17;;;;;;;3.00;2.80;;;;;;;20.60;47.37;96328.13;6121431;23;20211;-85
2022/07/18 02:45:43;;;;;;;3.97;3.38;;;;;;;20.53;47.48;96331.88;6122087;23;20175;-84
2022/07/18 02:48:14;;;;;;;2.95;2.72;;;;;;;20.55;47.41;96333.25;6122560;23;20183;-85
2022/07/18 02:50:40;;;;;;;3.20;2.90;;;;;;;20.46;47.96;96334.56;6121305;23;20218;-85
2022/07/18 02:53:07;;;;;;;2.75;2.55;;;;;;;20.52;47.92;96343.38;6121734;23;20202;-86
2022/07/18 02:55:33;;;;;;;2.60;2.40;;;;;;;20.51;48.04;96353.03;6122290;23;20525;-85
2022/07/18 02:58:00;;;;;;;2.88;2.67;;;;;;;20.59;47.81;96344.84;6121976;23;20634;-85
2022/07/18 03:00:26;;;;;;;3.10;2.80;;;;;;;20.51;48.03;96341.75;6120912;23;20697;-85
2022/07/18 03:02:53;;;;;;;2.90;2.60;;;;;;;20.47;48.49;96341.41;6120704;23;20208;-86
2022/07/18 03:05:21;;;;;;;2.80;2.60;;;;;;;20.47;47.89;96344.00;6121727;23;20171;-85
2022/07/18 03:07:51;;;;;;;3.25;2.70;;;;;;;20.55;48.10;96346.34;6121544;23;20207;-86
2022/07/18 03:10:17;;;;;;;4.22;2.78;;;;;;;20.56;47.95;96345.31;6121280;23;20204;-85
2022/07/18 03:12:44;;;;;;;2.92;2.72;;;;;;;20.54;48.03;96346.56;6120666;23;20222;-85
2022/07/18 03:15:11;;;;;;;4.38;3.03;;;;;;;20.43;48.65;96349.91;6122299;23;20175;-86
2022/07/18 03:17:38;;;;;;;4.10;2.97;;;;;;;20.47;48.38;96356.28;6121723;23;20179;-85
2022/07/18 03:20:05;;;;;;;4.20;2.78;;;;;;;20.37;48.87;96353.41;6121375;23;20202;-86
2022/07/18 03:22:34;;;;;;;3.03;2.83;;;;;;;20.33;48.63;96360.84;6121201;23;20576;-86
2022/07/18 03:25:00;;;;;;;3.72;3.40;;;;;;;20.33;48.52;96359.03;6122275;23;20215;-85
2022/07/18 03:27:27;;;;;;;2.85;2.55;;;;;;;20.28;48.72;96360.69;6121843;23;20194;-86
2022/07/18 03:29:53;;;;;;;5.35;2.85;;;;;;;20.33;48.31;96372.13;6121787;23;20203;-85
2022/07/18 03:32:20;;;;;;;3.40;3.10;;;;;;;20.38;48.61;96368.88;6120161;23;20182;-85
2022/07/18 03:34:47;;;;;;;2.92;2.72;;;;;;;20.37;48.39;96364.66;6121916;23;20233;-86
2022/07/18 03:37:13;;;;;;;3.35;3.05;;;;;;;20.44;48.21;96372.44;6122032;23;20160;-86
2022/07/18 03:39:42;;;;;;;3.00;2.80;;;;;;;20.41;48.11;96378.88;6121851;23;20196;-85
2022/07/18 03:42:09;;;;;;;3.63;2.80;;;;;;;20.43;48.02;96381.28;6121383;23;20213;-85
2022/07/18 03:44:35;;;;;;;2.88;2.58;;;;;;;20.28;48.67;96379.81;6121439;23;20697;-86
2022/07/18 03:47:02;;;;;;;3.03;2.83;;;;;;;20.01;49.02;96391.56;6121634;23;20178;-85
2022/07/18 03:49:28;;;;;;;2.83;2.63;;;;;;;20.11;49.51;96391.88;6128208;23;20203;-85
2022/07/18 03:51:55;;;;;;;2.70;2.50;;;;;;;20.38;51.30;96387.19;6129272;23;20183;-88
2022/07/18 03:54:22;;;;;;;2.80;2.60;;;;;;;20.62;49.22;96386.28;6131052;23;20466;-87
2022/07/18 03:56:49;;;;;;;4.10;2.72;;;;;;;20.81;48.68;96394.94;6133133;23;20230;-85
2022/07/18 03:59:16;;;;;;;3.00;2.70;;;;;;;20.97;48.54;96383.84;6133253;23;20214;-86
2022/07/18 04:01:42;;;;;;;2.58;2.38;;;;;;;21.19;50.05;96386.75;6127507;23;20191;-85
2022/07/18 04:04:09;;;;;;;2.92;2.53;;;;;;;21.52;49.01;96388.16;6126662;23;20218;-85
2022/07/18 04:06:35;;;;;;;2.80;2.60;;;;;;;21.82;48.19;96386.22;6126608;23;20179;-86
2022/07/18 04:09:02;;;;;;;3.47;2.65;;;;;;;21.94;45.96;96384.41;6124862;23;20175;-86
2022/07/18 04:11:28;;;;;;;2.97;2.78;;;;;;;21.99;46.64;96378.47;6123870;23;20180;-85
2022/07/18 04:13:56;;;;;;;5.15;2.92;;;;;;;22.10;46.33;96388.22;6121003;23;20218;-85
2022/07/18 04:16:23;;;;;;;3.58;2.97;;;;;;;22.20;46.13;96383.16;6121904;23;20806;-87
2022/07/18 04:18:50;;;;;;;4.78;3.00;;;;;;;22.30;45.72;96386.03;6124819;23;20164;-85
2022/07/18 04:21:17;;;;;;;5.93;2.90;;;;;;;22.37;45.37;96383.25;6123798;23;20206;-85
2022/07/18 04:23:44;;;;;;;6.53;3.30;;;;;;;22.44;45.05;96388.41;6123769;23;20243;-85
2022/07/18 04:26:10;;;;;;;4.60;2.90;;;;;;;22.48;44.61;96381.66;6123030;23;20195;-85
2022/07/18 04:28:37;;;;;;;4.30;3.05;;;;;;;22.57;44.94;96381.06;6127667;23;20205;-85
2022/07/18 04:31:05;;;;;;;3.53;2.75;;;;;;;22.70;44.60;96382.63;6126821;23;20196;-85
2022/07/18 04:33:31;;;;;;;3.05;2.70;;;;;;;22.78;44.32;96387.53;6123179;23;20207;-86
2022/07/18 04:35:57;;;;;;;4.50;2.83;;;;;;;22.87;44.12;96385.34;6122396;23;20187;-87
2022/07/18 04:38:24;;;;;;;3.00;2.80;;;;;;;22.93;43.77;96385.19;6114298;23;20246;-88
2022/07/18 04:40:51;;;;;;;3.33;3.03;;;;;;;22.97;43.30;96383.69;6118831;23;20287;-88
2022/07/18 04:43:17;;;;;;;4.22;3.08;;;;;;;22.91;43.33;96376.75;6117077;23;20235;-89
2022/07/18 04:45:44;;;;;;;3.90;3.60;;;;;;;22.93;43.32;96379.13;6118204;23;20650;-88
2022/07/18 04:48:13;;;;;;;4.68;3.45;;;;;;;22.85;44.85;96384.78;6118830;23;20175;-88
2022/07/18 04:50:41;;;;;;;3.83;3.30;;;;;;;22.71;44.49;96384.19;6117460;23;20222;-87
2022/07/18 04:53:10;;;;;;;4.65;3.58;;;;;;;22.65;44.98;96377.28;6116477;23;20673;-88
2022/07/18 04:55:40;;;;;;;4.32;3.00;;;;;;;22.60;44.22;96372.72;6117270;23;20180;-88
2022/07/18 04:58:06;;;;;;;5.15;3.40;;;;;;;22.55;44.31;96371.81;6118967;23;20556;-88
2022/07/18 05:00:33;;;;;;;3.28;2.90;;;;;;;22.57;44.13;96375.81;6117993;23;20690;-88
2022/07/18 05:03:00;;;;;;;3.88;2.80;;;;;;;22.66;44.17;96373.63;6117587;23;20220;-89
2022/07/18 05:05:32;;;;;;;3.35;2.95;;;;;;;22.70;44.22;96372.94;6118078;23;20207;-88
2022/07/18 05:07:59;;;;;;;5.80;3.28;;;;;;;22.74;44.06;96381.13;6118498;23;20179;-87
2022/07/18 05:10:25;;;;;;;3.95;3.00;;;;;;;22.74;44.04;96376.66;6117941;23;20812;-88
2022/07/18 05:12:56;;;;;;;6.50;3.10;;;;;;;22.82;43.81;96386.03;6117319;23;20200;-87
2022/07/18 05:15:24;;;;;;;15.00;13.63;;;;;;;22.69;43.97;96381.84;6118769;23;20172;-87
2022/07/18 05:17:58;;;;;;;5.75;5.18;;;;;;;22.75;43.80;96377.47;6118973;23;20180;-88
2022/07/18 05:20:28;;;;;;;14.15;12.45;;;;;;;22.90;43.59;96377.78;6121878;23;20735;-89
2022/07/18 05:22:59;;;;;;;6.20;3.92;;;;;;;22.92;42.93;96377.53;6115578;23;20536;-88
2022/07/18 05:25:51;;;;;;;6.68;6.05;;;;;;;22.91;43.68;96374.13;6133622;23;20211;-89
2022/07/18 05:31:57;;;;;;;5.35;3.85;;;;;;;23.04;43.32;96365.19;5987898;23;20177;-89
2022/07/18 05:34:36;;;;;;;3.42;3.10;;;;;;;23.14;43.30;96367.97;6120809;23;20212;-89
2022/07/18 05:47:17;;;;;;;;;;;;;;;;;;;;;
2022/07/18 05:50:20;;;;;;;3.50;3.20;;;;;;;23.47;42.93;96380.38;6125339;23;20198;-88
2022/07/18 05:56:16;;;;;;;4.25;3.50;;;;;;;23.42;42.94;96378.47;6133129;23;20226;-89
2022/07/18 06:12:20;;;;;;;4.05;3.65;;;;;;;23.70;42.74;96366.28;6001875;23;20231;-89
2022/07/18 06:15:08;;;;;;;5.15;3.40;;;;;;;23.81;42.26;96364.63;6000181;23;20193;-89
2022/07/18 06:17:42;;;;;;;5.00;3.78;;;;;;;23.93;42.28;96373.22;6110026;23;20183;-89
2022/07/18 06:20:18;;;;;;;3.15;2.85;;;;;;;23.89;42.06;96366.81;6121308;23;20196;-89
2022/07/18 06:22:58;;;;;;;4.32;3.10;;;;;;;23.92;41.75;96364.53;6128051;23;20206;-88
2022/07/18 06:25:52;;;;;;;;;;;;;;;;;;;;;
2022/07/18 06:28:26;;;;;;;4.25;3.10;;;;;;;24.26;41.38;96373.16;6141091;23;20261;-89
2022/07/18 09:05:38;;;;;;;2.17;1.98;;;;;;;28.08;26.07;96351.41;5858668;24;20241;-86
2022/07/18 09:36:36;;;;;;;1.70;1.60;;;;;;;28.58;22.86;96341.72;5862885;24;20189;-88
2022/07/18 09:40:07;;;;;;;;;;;;;;;;;;;;;
2022/07/18 09:53:43;;;;;;;4.50;1.83;;;;;;;28.80;23.90;96352.78;5826964;24;20203;-86
2022/07/18 10:16:25;;;;;;;;;;;;;;;;;;;;;
2022/07/18 10:24:53;;;;;;;2.92;1.30;;;;;;;29.99;22.85;96325.91;5941160;24;20693;-88
2022/07/18 10:28:03;;;;;;;1.90;1.77;;;;;;;30.14;22.14;96320.41;5945176;24;20514;-88
2022/07/18 10:46:36;;;;;;;3.10;1.65;;;;;;;30.50;21.98;96318.13;6029790;23;20182;-87
2022/07/18 10:50:06;;;;;;;2.42;1.77;;;;;;;30.45;21.35;96317.41;6108699;23;20181;-88
2022/07/18 10:53:34;;;;;;;2.38;1.52;;;;;;;30.49;21.57;96319.19;6056788;23;20219;-88
2022/07/18 10:59:31;;;;;;;;;;;;;;;;;;;;;
2022/07/18 11:05:56;;;;;;;2.10;1.67;;;;;;;31.18;20.91;96301.78;6171073;23;20794;-87
2022/07/18 11:08:25;;;;;;;2.55;1.58;;;;;;;31.28;21.08;96300.06;6140474;23;20185;-87
2022/07/18 11:14:08;;;;;;;1.88;1.65;;;;;;;30.94;21.12;96305.63;6154248;23;20668;-87
2022/07/18 11:20:41;;;;;;;3.88;1.70;;;;;;;30.95;21.58;96299.22;6057387;23;20739;-87
2022/07/18 11:23:31;;;;;;;3.45;1.58;;;;;;;31.19;21.24;96287.41;6078084;23;20604;-88
2022/07/18 11:26:00;;;;;;;2.90;1.65;;;;;;;31.39;21.55;96288.94;6149244;23;20250;-88
2022/07/18 11:28:29;;;;;;;1.60;1.50;;;;;;;31.42;20.70;96287.56;6149444;23;20233;-88
2022/07/18 11:35:15;;;;;;;4.85;1.80;;;;;;;31.31;20.81;96278.19;6034166;23;20210;-87
2022/07/18 11:41:34;;;;;;;2.13;1.80;;;;;;;31.15;21.33;96280.31;6064016;23;20659;-87
2022/07/18 11:47:29;;;;;;;3.08;1.75;;;;;;;31.06;21.61;96271.38;6143100;23;20785;-89
2022/07/18 11:56:18;;;;;;;4.75;4.35;;;;;;;31.79;21.16;96276.81;6168900;23;20277;-89
2022/07/18 12:58:26;;;;;;;3.47;1.90;;;;;;;32.44;21.04;96235.88;5864837;24;20181;-87
2022/07/18 13:07:43;;;;;;;3.72;2.47;;;;;;;32.54;20.98;96230.28;5777452;24;20234;-88
2022/07/18 14:41:02;;;;;;;3.08;1.50;;;;;;;32.57;21.31;96190.47;6010763;23;20256;-89
2022/07/18 14:55:30;;;;;;;;;;;;;;;;;;;;;
2022/07/18 14:58:02;;;;;;;3.35;1.60;;;;;;;32.39;22.44;96191.44;6056747;23;20248;-88
2022/07/18 15:00:36;;;;;;;3.45;2.00;;;;;;;32.42;21.66;96184.72;6172965;23;20198;-90
2022/07/18 15:03:15;;;;;;;2.92;2.00;;;;;;;32.50;22.24;96179.47;6175159;22;20228;-90
2022/07/18 15:05:45;;;;;;;4.82;1.77;;;;;;;32.60;22.33;96187.22;6190583;23;20196;-90
2022/07/18 15:08:19;;;;;;;4.32;2.10;;;;;;;32.61;21.92;96180.00;6180614;23;20178;-88
2022/07/18 15:11:08;;;;;;;3.72;1.90;;;;;;;32.69;22.02;96181.16;6178703;23;20185;-90
2022/07/18 15:17:00;;;;;;;4.13;2.88;;;;;;;32.55;22.00;96187.31;6077363;23;20180;-89
2022/07/18 15:19:27;;;;;;;2.83;2.47;;;;;;;32.58;22.63;96183.28;6085660;23;20237;-89
2022/07/18 15:22:05;;;;;;;2.30;2.10;;;;;;;32.53;22.85;96170.84;6142959;23;20175;-89
2022/07/18 15:24:37;;;;;;;3.08;2.70;;;;;;;32.44;22.55;96180.66;6178214;22;20201;-88
2022/07/18 15:32:56;;;;;;;2.85;1.80;;;;;;;31.92;22.40;96182.03;6162387;22;20216;-88
2022/07/18 15:35:25;;;;;;;4.45;1.95;;;;;;;31.88;23.08;96181.03;6197881;23;20155;-88
2022/07/18 15:37:52;;;;;;;6.60;2.30;;;;;;;31.64;23.21;96175.88;6179939;23;20166;-87
2022/07/18 15:40:22;;;;;;;2.90;1.83;;;;;;;31.63;23.10;96182.28;6179434;23;20198;-86
2022/07/18 15:42:52;;;;;;;2.88;1.90;;;;;;;31.66;23.86;96172.97;6172156;22;20228;-85
2022/07/18 15:51:46;;;;;;;2.45;1.80;;;;;;;31.76;23.03;96173.53;5973267;24;20186;-85
2022/07/18 15:56:53;;;;;;;2.35;1.95;;;;;;;31.86;23.34;96162.69;6031989;23;20223;-88
2022/07/18 16:06:49;;;;;;;4.82;1.70;;;;;;;31.64;23.11;96162.56;6176080;23;20201;-90
2022/07/18 16:23:07;;;;;;;1.70;1.60;;;;;;;31.35;23.68;96157.53;5925361;23;20242;-91
2022/07/18 16:25:35;;;;;;;6.65;2.05;;;;;;;31.29;24.68;96155.25;5880332;24;20212;-87
2022/07/18 16:28:14;;;;;;;4.38;1.85;;;;;;;31.24;24.20;96153.47;5892566;24;20185;-88
2022/07/18 16:30:41;;;;;;;4.85;1.90;;;;;;;31.25;23.90;96153.19;6049449;23;20202;-87
2022/07/18 16:33:10;;;;;;;1.98;1.70;;;;;;;31.30;24.35;96152.31;6117058;23;20203;-87
2022/07/18 16:35:37;;;;;;;3.67;1.85;;;;;;;31.21;24.19;96157.50;6177468;23;20171;-87
2022/07/18 16:38:03;;;;;;;2.85;1.85;;;;;;;31.18;24.43;96142.13;6181853;23;20185;-89
2022/07/18 16:40:30;;;;;;;6.70;1.85;;;;;;;31.16;23.94;96148.84;6179906;23;20217;-87
2022/07/18 16:42:59;;;;;;;2.63;1.88;;;;;;;31.13;24.66;96142.25;6179979;22;20220;-88
2022/07/18 16:45:26;;;;;;;5.70;1.83;;;;;;;30.98;24.53;96141.69;6181414;23;20198;-87
2022/07/18 16:47:58;;;;;;;3.97;1.85;;;;;;;30.91;24.79;96144.72;6180403;23;20178;-89
2022/07/18 16:50:25;;;;;;;2.85;1.45;;;;;;;30.72;24.71;96138.66;6179589;23;20194;-88
2022/07/18 16:52:52;;;;;;;5.47;1.70;;;;;;;30.51;24.68;96141.63;6178685;22;20217;-88
2022/07/18 16:55:19;;;;;;;1.60;1.50;;;;;;;30.47;24.62;96139.81;6180401;23;20178;-88
2022/07/18 16:57:46;;;;;;;4.20;2.20;;;;;;;30.41;25.08;96139.09;6180737;23;20158;-88
2022/07/18 17:00:15;;;;;;;4.72;1.70;;;;;;;30.33;25.01;96128.34;6179436;23;20197;-89
2022/07/18 17:02:42;;;;;;;3.20;1.60;;;;;;;30.35;25.39;96126.19;6166717;22;20202;-89
2022/07/18 17:05:30;;;;;;;6.60;1.50;;;;;;;30.31;24.86;96130.50;6199665;23;20197;-88
2022/07/18 17:08:34;;;;;;;1.92;1.73;;;;;;;30.27;25.36;96134.81;6182328;23;20163;-88
2022/07/18 17:13:56;;;;;;;2.60;1.60;;;;;;;30.08;25.72;96140.91;6181350;22;20683;-84
2022/07/18 17:16:31;;;;;;;3.40;1.60;;;;;;;29.99;25.55;96139.19;6183277;23;20640;-86
2022/07/18 17:19:07;;;;;;;2.10;1.73;;;;;;;29.96;25.37;96137.06;6183125;23;20170;-87
2022/07/18 17:21:35;;;;;;;3.55;2.10;;;;;;;29.99;25.74;96136.53;6182720;23;20173;-85
2022/07/18 17:24:02;;;;;;;1.77;1.60;;;;;;;29.94;25.77;96137.34;6182646;22;20202;-84
2022/07/18 17:26:31;;;;;;;4.35;1.58;;;;;;;29.93;25.62;96143.75;6182070;23;20810;-86
2022/07/18 17:32:26;;;;;;;4.68;1.70;;;;;;;29.89;25.78;96140.06;6163187;22;20261;-86
2022/07/18 17:34:54;;;;;;;4.45;1.80;;;;;;;29.87;25.73;96140.34;6182683;23;20249;-85
2022/07/18 17:37:28;;;;;;;4.57;1.98;;;;;;;29.77;25.76;96137.84;6183089;23;20202;-87
2022/07/18 17:40:35;;;;;;;2.88;1.77;;;;;;;29.70;25.88;96132.06;6182639;23;20194;-90
2022/07/18 17:43:49;;;;;;;2.60;1.77;;;;;;;29.67;25.65;96134.50;6182514;22;20204;-89
2022/07/18 18:07:35;;;;;;;3.00;1.73;;;;;;;29.24;26.33;96131.78;5904572;23;20266;-89
2022/07/18 18:11:04;;;;;;;3.67;1.85;;;;;;;29.23;26.40;96140.81;6035575;23;20200;-90
2022/07/18 18:13:32;;;;;;;3.60;1.65;;;;;;;29.12;26.19;96132.16;5948311;23;20214;-86
2022/07/18 18:19:07;;;;;;;3.90;1.92;;;;;;;29.09;26.47;96137.22;6044553;23;20181;-87
2022/07/18 18:22:05;;;;;;;2.10;1.65;;;;;;;29.07;26.64;96136.72;6061290;23;20540;-88
2022/07/18 18:24:58;;;;;;;2.28;1.70;;;;;;;29.02;26.61;96137.56;6074030;23;20213;-86
2022/07/18 18:27:40;;;;;;;3.95;2.05;;;;;;;28.99;26.85;96135.47;6182148;23;20197;-86
2022/07/18 18:30:11;;;;;;;3.55;1.80;;;;;;;28.84;26.76;96133.75;6182714;23;20210;-86
2022/07/18 18:32:37;;;;;;;3.20;2.75;;;;;;;28.81;26.50;96128.22;6179737;23;20269;-87
2022/07/18 18:35:04;;;;;;;4.82;4.43;;;;;;;28.73;27.40;96121.63;6155930;23;20181;-88
2022/07/18 18:37:32;;;;;;;2.65;2.45;;;;;;;28.69;27.03;96128.53;6157085;23;20178;-87
2022/07/18 18:40:00;;;;;;;7.25;2.42;;;;;;;28.68;26.66;96126.97;6156320;23;20202;-85
2022/07/18 18:42:27;;;;;;;4.43;1.92;;;;;;;28.66;26.78;96128.31;6152651;23;20171;-85
2022/07/18 18:44:53;;;;;;;3.70;1.80;;;;;;;28.56;27.20;96133.69;6153452;23;20182;-87
2022/07/18 18:47:20;;;;;;;2.85;1.88;;;;;;;28.43;27.82;96130.63;6153635;23;20198;-89
2022/07/18 18:49:46;;;;;;;3.40;2.03;;;;;;;28.39;28.15;96134.09;6155347;23;20205;-87
2022/07/18 18:52:13;;;;;;;4.10;2.00;;;;;;;28.38;28.41;96127.19;6154828;23;20179;-87
2022/07/18 18:54:41;;;;;;;5.55;2.03;;;;;;;28.26;28.74;96134.72;6155600;23;20182;-86
2022/07/18 18:57:08;;;;;;;3.17;2.00;;;;;;;28.24;28.80;96137.63;6155987;23;20175;-87
2022/07/18 18:59:34;;;;;;;3.83;1.88;;;;;;;28.18;29.20;96136.03;6155574;23;20202;-88
2022/07/18 19:02:01;;;;;;;3.10;1.77;;;;;;;28.23;28.98;96135.25;6154380;23;20192;-88
2022/07/18 19:04:27;;;;;;;2.05;1.90;;;;;;;28.17;29.05;96135.25;6154128;23;20681;-87
2022/07/18 19:06:54;;;;;;;2.33;1.92;;;;;;;28.12;29.45;96132.63;6155405;23;20207;-87
2022/07/18 19:09:20;;;;;;;2.38;1.85;;;;;;;28.08;29.08;96136.91;6154801;23;20179;-87
2022/07/18 19:11:48;;;;;;;4.68;1.75;;;;;;;28.00;29.55;96131.38;6153731;23;20182;-87
2022/07/18 19:14:14;;;;;;;2.20;1.95;;;;;;;28.01;29.65;96133.75;6153901;23;20206;-87
2022/07/18 19:16:41;;;;;;;2.80;1.70;;;;;;;27.97;29.94;96131.94;6154461;23;20554;-88
2022/07/18 19:19:07;;;;;;;2.63;1.95;;;;;;;27.97;29.82;96138.00;6154891;23;20185;-87
2022/07/18 19:21:34;;;;;;;2.40;1.92;;;;;;;27.99;29.78;96135.09;6153719;23;20198;-88
2022/07/18 19:24:00;;;;;;;2.00;1.77;;;;;;;27.87;29.85;96139.94;6154285;23;20211;-87
2022/07/18 19:26:27;;;;;;;3.95;2.30;;;;;;;27.85;30.04;96143.66;6155193;23;20203;-88
2022/07/18 19:28:55;;;;;;;2.53;1.85;;;;;;;27.82;30.03;96138.88;6155896;23;20516;-88
2022/07/18 19:31:21;;;;;;;3.03;1.92;;;;;;;27.78;29.90;96139.69;6154043;23;20747;-88
2022/07/18 19:33:49;;;;;;;5.68;1.73;;;;;;;27.69;30.43;96143.97;6153459;23;20215;-83
2022/07/18 19:36:16;;;;;;;2.83;2.30;;;;;;;27.69;30.25;96150.06;6154713;23;20175;-88
2022/07/18 19:38:42;;;;;;;6.88;2.20;;;;;;;27.68;30.24;96156.41;6154492;23;20186;-87
2022/07/18 19:41:09;;;;;;;2.10;1.90;;;;;;;27.68;30.53;96152.97;6154320;23;20198;-84
2022/07/18 19:43:36;;;;;;;7.45;2.10;;;;;;;27.72;30.48;96159.28;6153350;23;20202;-87
2022/07/18 19:46:05;;;;;;;4.70;2.30;;;;;;;27.68;30.64;96159.06;6154358;23;20226;-88
2022/07/18 19:48:31;;;;;;;5.88;3.30;;;;;;;27.69;30.78;96159.88;6154222;23;20175;-88
2022/07/18 19:50:58;;;;;;;3.55;2.97;;;;;;;27.72;30.62;96167.22;6152968;23;20196;-87
2022/07/18 19:53:24;;;;;;;3.90;2.30;;;;;;;27.68;30.63;96160.91;6153080;23;20207;-86
2022/07/18 19:55:51;;;;;;;3.40;1.90;;;;;;;27.61;30.67;96171.00;6154025;23;20171;-86
2022/07/18 19:58:17;;;;;;;2.33;1.98;;;;;;;27.55;30.97;96169.38;6154491;23;20190;-87
2022/07/18 20:00:44;;;;;;;3.00;1.95;;;;;;;27.47;31.12;96168.09;6152062;23;20183;-87
2022/07/18 20:03:12;;;;;;;3.63;1.80;;;;;;;27.38;31.15;96167.84;6152045;23;20199;-87
2022/07/18 20:05:39;;;;;;;2.47;1.90;;;;;;;27.29;31.11;96166.03;6152646;23;20179;-89
2022/07/18 20:08:07;;;;;;;2.47;2.03;;;;;;;27.33;31.25;96169.69;6151879;23;20178;-87
2022/07/18 20:10:34;;;;;;;2.40;2.20;;;;;;;27.32;31.10;96166.28;6151103;23;20199;-88
2022/07/18 20:13:01;;;;;;;2.40;2.20;;;;;;;27.28;31.38;96161.81;6151563;23;20631;-87
2022/07/18 20:15:29;;;;;;;3.88;2.10;;;;;;;27.24;31.24;96158.91;6152731;23;20225;-87
2022/07/18 20:17:56;;;;;;;2.15;2.00;;;;;;;27.11;31.24;96162.91;6152768;23;20175;-88
2022/07/18 20:20:24;;;;;;;5.53;1.95;;;;;;;27.10;31.33;96169.25;6152135;23;20568;-88
2022/07/18 20:22:50;;;;;;;3.72;2.38;;;;;;;27.00;31.76;96166.59;6151757;23;20206;-87
2022/07/18 20:25:17;;;;;;;3.25;1.95;;;;;;;27.00;31.66;96168.44;6152122;23;20182;-87
2022/07/18 20:27:43;;;;;;;4.85;2.25;;;;;;;27.05;31.47;96171.09;6151952;23;20195;-87
2022/07/18 20:30:14;;;;;;;3.83;2.28;;;;;;;27.03;31.78;96171.34;6151615;23;20229;-86
2022/07/18 20:32:41;;;;;;;3.08;1.98;;;;;;;27.04;31.56;96166.84;6150470;23;20596;-87
2022/07/18 20:35:08;;;;;;;5.40;2.33;;;;;;;27.06;31.63;96170.81;6152203;23;20190;-86
2022/07/18 20:37:37;;;;;;;3.55;1.92;;;;;;;27.04;31.90;96164.22;6153573;23;20175;-87
2022/07/18 20:40:05;;;;;;;2.30;2.10;;;;;;;26.99;32.16;96170.28;6153272;23;20190;-90
2022/07/18 20:42:32;;;;;;;3.47;2.15;;;;;;;26.95;32.03;96171.09;6152937;23;20544;-87
2022/07/18 20:44:58;;;;;;;4.43;1.90;;;;;;;26.94;32.18;96172.94;6153724;23;20175;-87
2022/07/18 20:47:27;;;;;;;2.45;2.28;;;;;;;26.86;32.17;96165.53;6153925;23;20581;-88
2022/07/18 20:49:53;;;;;;;4.32;2.17;;;;;;;26.84;32.39;96168.44;6153276;23;20199;-87
2022/07/18 20:52:20;;;;;;;2.60;2.40;;;;;;;26.83;32.22;96168.69;6152172;23;20190;-87
2022/07/18 20:54:48;;;;;;;4.05;2.30;;;;;;;26.78;32.56;96171.31;6154011;23;20257;-87
2022/07/18 20:57:15;;;;;;;3.53;2.53;;;;;;;26.75;32.65;96163.91;6153164;23;20657;-88
2022/07/18 20:59:42;;;;;;;3.05;2.10;;;;;;;26.76;32.81;96158.38;6153452;23;20253;-87